Forside
METAR-TAF:

METAR-TAF

Lufthavne :

Watertown Municipal Airport

Watertown, Wisconsin, USA

Breddekreds: 43-10N, længdekreds: 088-43W, højde: 254 m

Aktuelle vejr

Denne rapport blev lavet for 28 minutter siden, kl. 11:35 UTC
Vind 6 kt fra sydsydøst
Temperatur 2°C
Fugtighed 87%
Tryk 1023 hPa
Sigt: 16.1 km
Brudte skyer i en højde af 2800 ft
Brudte skyer i en højde af 3800 ft
Overskyet i en højde af 5000 ft

METAR: KRYV 241135Z AUTO 16006KT 10SM BKN028 BKN038 OVC050 02/00 A3021 RMK AO2 T00201005

Tid: 06:03 (12:03 UTC)


TAF: fraværende

Vejrobservationer og prognoser fra mere end 4000 lufthavne (METAR og TAF).

De gule og røde prikker repræsenterer de meteorologiske stationer.

Flyt musen over at se navnet på stationen.

Så klik over at se vejr observationer og prognoser.

At skifte det kort: Klik på de grønne knapper med et sort kors for at zoome ind; på den grønne knap med en bindestreg for at zoome ud; eller på de grønne pile for tilstødende kort.


METAR-TAF: